createdAt,value
2019-01-20T00:01:27.412Z,-3.10
2019-01-20T00:03:57.536Z,-3.10
2019-01-20T00:06:27.635Z,-3.10
2019-01-20T00:08:57.748Z,-3.10
2019-01-20T00:11:27.847Z,-3.10
2019-01-20T00:13:57.950Z,-3.10
2019-01-20T00:16:28.070Z,-3.10
2019-01-20T00:18:58.165Z,-3.10
2019-01-20T00:21:28.281Z,-3.10
2019-01-20T00:23:58.374Z,-3.10
2019-01-20T00:26:28.505Z,-3.10
2019-01-20T00:28:58.594Z,-3.20
2019-01-20T00:31:28.711Z,-3.10
2019-01-20T00:33:58.809Z,-3.20
2019-01-20T00:36:28.923Z,-3.20
2019-01-20T00:38:59.023Z,-3.20
2019-01-20T00:41:29.138Z,-3.20
2019-01-20T00:43:59.234Z,-3.20
2019-01-20T00:46:29.348Z,-3.20
2019-01-20T00:48:59.442Z,-3.20
2019-01-20T00:51:29.930Z,-3.30
2019-01-20T00:54:00.104Z,-3.30
2019-01-20T00:56:30.228Z,-3.30
2019-01-20T00:59:00.325Z,-3.20
2019-01-20T01:01:30.445Z,-3.30
2019-01-20T01:04:00.550Z,-3.30
2019-01-20T01:06:30.669Z,-3.30
2019-01-20T01:09:00.763Z,-3.30
2019-01-20T01:11:32.501Z,-3.30
2019-01-20T01:14:02.755Z,-3.30
2019-01-20T01:16:32.871Z,-3.30
2019-01-20T01:19:02.962Z,-3.40
2019-01-20T01:21:33.077Z,-3.40
2019-01-20T01:24:03.169Z,-3.40
2019-01-20T01:26:33.277Z,-3.40
2019-01-20T01:29:03.375Z,-3.40
2019-01-20T01:31:33.497Z,-3.40
2019-01-20T01:34:03.602Z,-3.50
2019-01-20T01:36:33.781Z,-3.40
2019-01-20T01:39:05.746Z,-3.50
2019-01-20T01:41:39.139Z,-3.50
2019-01-20T01:44:07.663Z,-3.50
2019-01-20T01:46:37.787Z,-3.50
2019-01-20T01:49:27.311Z,-3.60
2019-01-20T01:51:57.436Z,-3.60
2019-01-20T01:54:27.528Z,-3.60
2019-01-20T01:56:57.651Z,-3.60
2019-01-20T01:59:28.728Z,-3.60
2019-01-20T02:01:58.835Z,-3.60
2019-01-20T02:04:28.937Z,-3.70
2019-01-20T02:06:59.061Z,-3.60
2019-01-20T02:09:29.158Z,-3.70
2019-01-20T02:11:59.278Z,-3.70
2019-01-20T02:14:30.346Z,-3.70
2019-01-20T02:17:00.458Z,-3.80
2019-01-20T02:19:30.557Z,-3.80
2019-01-20T02:22:00.676Z,-3.80
2019-01-20T02:24:30.780Z,-3.80
2019-01-20T02:27:00.899Z,-3.80
2019-01-20T02:29:30.998Z,-3.80
2019-01-20T02:32:01.124Z,-3.80
2019-01-20T02:34:31.215Z,-3.80
2019-01-20T02:37:01.329Z,-3.90
2019-01-20T02:39:31.424Z,-3.90
2019-01-20T02:42:01.545Z,-3.90
2019-01-20T02:44:31.639Z,-3.90
2019-01-20T02:47:01.758Z,-3.90
2019-01-20T02:49:31.851Z,-3.90
2019-01-20T02:52:01.970Z,-4.00
2019-01-20T02:54:32.080Z,-4.00
2019-01-20T02:57:02.227Z,-4.00
2019-01-20T02:59:32.418Z,-4.00
2019-01-20T03:02:02.591Z,-4.00
2019-01-20T03:04:32.688Z,-4.00
2019-01-20T03:07:02.803Z,-4.00
2019-01-20T03:09:32.905Z,-4.00
2019-01-20T03:12:03.671Z,-4.10
2019-01-20T03:14:34.003Z,-4.10
2019-01-20T03:17:04.117Z,-4.10
2019-01-20T03:19:34.226Z,-4.10
2019-01-20T03:22:04.510Z,-4.10
2019-01-20T03:24:34.694Z,-4.10
2019-01-20T03:27:04.802Z,-4.10
2019-01-20T03:29:34.899Z,-4.10
2019-01-20T03:32:05.025Z,-4.10
2019-01-20T03:34:35.114Z,-4.10
2019-01-20T03:37:05.235Z,-4.20
2019-01-20T03:39:35.332Z,-4.20
2019-01-20T03:42:11.901Z,-4.20
2019-01-20T03:44:37.245Z,-4.20
2019-01-20T03:47:07.356Z,-4.20
2019-01-20T03:49:37.456Z,-4.20
2019-01-20T03:52:07.573Z,-4.20
2019-01-20T03:54:37.672Z,-4.20
2019-01-20T03:57:07.792Z,-4.30
2019-01-20T03:59:57.313Z,-4.30
2019-01-20T04:02:27.435Z,-4.30
2019-01-20T04:04:57.531Z,-4.30
2019-01-20T04:07:27.658Z,-4.30
2019-01-20T04:09:57.756Z,-4.30
2019-01-20T04:12:27.940Z,-4.30
2019-01-20T04:14:58.044Z,-4.30
2019-01-20T04:17:28.168Z,-4.30
2019-01-20T04:19:58.265Z,-4.30
2019-01-20T04:22:28.381Z,-4.40
2019-01-20T04:24:58.484Z,-4.40
2019-01-20T04:27:28.605Z,-4.40
2019-01-20T04:29:58.698Z,-4.40
2019-01-20T04:32:28.820Z,-4.40
2019-01-20T04:34:58.914Z,-4.40
2019-01-20T04:37:29.031Z,-4.40
2019-01-20T04:39:59.130Z,-4.50
2019-01-20T04:42:29.483Z,-4.50
2019-01-20T04:44:59.625Z,-4.50
2019-01-20T04:47:29.768Z,-4.50
2019-01-20T04:50:00.935Z,-4.50
2019-01-20T04:52:31.050Z,-4.50
2019-01-20T04:55:01.148Z,-4.50
2019-01-20T04:57:45.445Z,-4.50
2019-01-20T05:00:39.457Z,-4.50
2019-01-20T05:03:09.570Z,-4.50
2019-01-20T05:05:39.674Z,-4.50
2019-01-20T05:08:09.787Z,-4.50
2019-01-20T05:10:39.886Z,-4.50
2019-01-20T05:13:10.007Z,-4.50
2019-01-20T05:15:40.109Z,-4.50
2019-01-20T05:18:10.233Z,-4.50
2019-01-20T05:20:40.365Z,-4.60
2019-01-20T05:23:10.487Z,-4.50
2019-01-20T05:25:40.584Z,-4.60
2019-01-20T05:28:10.697Z,-4.60
2019-01-20T05:30:40.796Z,-4.60
2019-01-20T05:33:10.913Z,-4.60
2019-01-20T05:35:41.006Z,-4.60
2019-01-20T05:38:11.124Z,-4.60
2019-01-20T05:40:41.222Z,-4.60
2019-01-20T05:43:11.330Z,-4.60
2019-01-20T05:45:41.434Z,-4.60
2019-01-20T05:48:11.591Z,-4.60
2019-01-20T05:50:41.756Z,-4.60
2019-01-20T05:53:11.872Z,-4.60
2019-01-20T05:55:41.966Z,-4.60
2019-01-20T05:58:12.090Z,-4.60
2019-01-20T06:00:42.186Z,-4.60
2019-01-20T06:03:12.302Z,-4.60
2019-01-20T06:05:42.404Z,-4.60
2019-01-20T06:08:12.528Z,-4.60
2019-01-20T06:10:42.631Z,-4.60
2019-01-20T06:13:12.749Z,-4.60
2019-01-20T06:15:42.847Z,-4.60
2019-01-20T06:18:12.959Z,-4.60
2019-01-20T06:20:43.118Z,-4.60
2019-01-20T06:23:13.239Z,-4.60
2019-01-20T06:25:43.333Z,-4.60
2019-01-20T06:28:13.450Z,-4.70
2019-01-20T06:30:43.547Z,-4.70
2019-01-20T06:33:13.665Z,-4.70
2019-01-20T06:35:43.834Z,-4.70
2019-01-20T06:38:13.950Z,-4.70
2019-01-20T06:40:44.047Z,-4.70
2019-01-20T06:43:14.172Z,-4.70
2019-01-20T06:45:44.267Z,-4.80
2019-01-20T06:48:14.389Z,-4.80
2019-01-20T06:50:44.546Z,-4.80
2019-01-20T06:53:14.685Z,-4.80
2019-01-20T06:55:44.785Z,-4.80
2019-01-20T06:58:14.893Z,-4.80
2019-01-20T07:00:45.004Z,-4.80
2019-01-20T07:03:15.124Z,-4.80
2019-01-20T07:05:45.218Z,-4.80
2019-01-20T07:08:15.336Z,-4.80
2019-01-20T07:10:45.430Z,-4.80
2019-01-20T07:13:15.540Z,-4.80
2019-01-20T07:15:45.739Z,-4.80
2019-01-20T07:18:15.855Z,-4.80
2019-01-20T07:20:45.951Z,-4.80
2019-01-20T07:23:16.073Z,-4.70
2019-01-20T07:25:46.173Z,-4.70
2019-01-20T07:28:16.290Z,-4.70
2019-01-20T07:30:46.381Z,-4.70
2019-01-20T07:33:16.495Z,-4.60
2019-01-20T07:35:46.618Z,-4.60
2019-01-20T07:38:16.714Z,-4.60
2019-01-20T07:40:46.834Z,-4.50
2019-01-20T07:43:17.277Z,-4.50
2019-01-20T07:45:47.477Z,-4.40
2019-01-20T07:48:17.595Z,-4.40
2019-01-20T07:50:47.897Z,-4.30
2019-01-20T07:53:18.084Z,-4.30
2019-01-20T07:55:48.200Z,-4.20
2019-01-20T07:58:18.293Z,-4.20
2019-01-20T08:00:48.420Z,-4.10
2019-01-20T08:03:18.514Z,-4.00
2019-01-20T08:05:48.633Z,-4.00
2019-01-20T08:08:18.725Z,-3.90
2019-01-20T08:10:48.841Z,-3.80
2019-01-20T08:13:24.167Z,-3.80
2019-01-20T08:15:50.758Z,-3.70
2019-01-20T08:18:20.860Z,-3.60
2019-01-20T08:20:50.979Z,-3.60
2019-01-20T08:23:21.102Z,-3.40
2019-01-20T08:25:51.219Z,-3.30
2019-01-20T08:28:21.338Z,-3.20
2019-01-20T08:30:51.460Z,-3.20
2019-01-20T08:33:21.554Z,-3.10
2019-01-20T08:35:51.671Z,-2.90
2019-01-20T08:38:21.779Z,-2.90
2019-01-20T08:40:51.892Z,-2.70
2019-01-20T08:43:21.988Z,-2.60
2019-01-20T08:45:56.992Z,-2.30
2019-01-20T08:48:27.839Z,-2.00
2019-01-20T08:50:58.913Z,-1.60
2019-01-20T08:53:29.748Z,-1.20
2019-01-20T08:56:00.063Z,-1.00
2019-01-20T08:58:30.412Z,-0.90
2019-01-20T09:01:03.632Z,-0.80
2019-01-20T09:03:33.769Z,-0.90
2019-01-20T09:06:03.877Z,-0.90
2019-01-20T09:08:34.275Z,-0.50
2019-01-20T09:11:04.389Z,-0.30
2019-01-20T09:13:39.633Z,0.30
2019-01-20T09:16:06.745Z,1.80
2019-01-20T09:18:36.838Z,3.70
2019-01-20T09:21:06.941Z,5.10
2019-01-20T09:23:37.138Z,6.20
2019-01-20T09:26:07.234Z,7.20
2019-01-20T09:28:37.326Z,7.70
2019-01-20T09:31:07.435Z,7.80
2019-01-20T09:33:37.516Z,8.50
2019-01-20T09:36:07.635Z,9.30
2019-01-20T09:38:37.736Z,10.30
2019-01-20T09:41:07.869Z,11.40
2019-01-20T09:43:37.963Z,11.90
2019-01-20T09:46:08.091Z,13.20
2019-01-20T09:48:57.627Z,13.40
2019-01-20T09:51:27.746Z,12.80
2019-01-20T09:53:58.020Z,12.50
2019-01-20T09:56:28.149Z,13.10
2019-01-20T09:58:58.286Z,13.70
2019-01-20T10:01:28.610Z,13.30
2019-01-20T10:03:58.707Z,13.60
2019-01-20T10:06:28.844Z,13.80
2019-01-20T10:08:59.358Z,13.40
2019-01-20T10:11:29.830Z,14.10
2019-01-20T10:14:00.066Z,13.60
2019-01-20T10:16:30.255Z,13.50
2019-01-20T10:19:00.356Z,13.30
2019-01-20T10:21:30.483Z,13.20
2019-01-20T10:24:00.585Z,13.40
2019-01-20T10:26:30.712Z,13.10
2019-01-20T10:29:00.815Z,13.00
2019-01-20T10:31:30.939Z,12.60
2019-01-20T10:34:01.079Z,12.60
2019-01-20T10:36:31.207Z,12.60
2019-01-20T10:39:01.304Z,12.90
2019-01-20T10:41:32.991Z,12.90
2019-01-20T10:44:03.095Z,13.60
2019-01-20T10:46:33.214Z,14.30
2019-01-20T10:49:03.313Z,15.20
2019-01-20T10:51:33.439Z,14.60
2019-01-20T10:54:03.532Z,15.20
2019-01-20T10:56:33.668Z,15.60
2019-01-20T10:59:03.766Z,15.90
2019-01-20T11:01:33.892Z,17.10
2019-01-20T11:04:03.989Z,16.90
2019-01-20T11:06:34.114Z,18.30
2019-01-20T11:09:04.678Z,19.10
2019-01-20T11:11:35.034Z,18.10
2019-01-20T11:14:09.428Z,18.30
2019-01-20T11:16:36.948Z,18.50
2019-01-20T11:19:07.167Z,18.60
2019-01-20T11:21:44.098Z,16.50
2019-01-20T11:24:14.184Z,15.70
2019-01-20T11:26:44.306Z,14.90
2019-01-20T11:29:14.402Z,13.30
2019-01-20T11:31:44.527Z,12.00
2019-01-20T11:34:14.621Z,10.90
2019-01-20T11:36:44.746Z,10.30
2019-01-20T11:39:14.840Z,10.20
2019-01-20T11:41:44.949Z,9.00
2019-01-20T11:44:17.374Z,8.20
2019-01-20T11:46:47.716Z,7.80
2019-01-20T11:49:20.794Z,7.00
2019-01-20T11:51:53.726Z,6.00
2019-01-20T11:54:23.793Z,5.40
2019-01-20T11:56:54.009Z,4.80
2019-01-20T11:59:24.650Z,4.40
2019-01-20T12:01:57.740Z,4.10
2019-01-20T12:04:27.800Z,3.80
2019-01-20T12:06:59.509Z,3.60
2019-01-20T12:09:29.577Z,3.60
2019-01-20T12:11:59.776Z,4.10
2019-01-20T12:14:29.850Z,4.90
2019-01-20T12:17:00.015Z,5.50
2019-01-20T12:19:30.158Z,5.60
2019-01-20T12:22:00.471Z,5.30
2019-01-20T12:24:30.543Z,5.00
2019-01-20T12:27:00.718Z,4.70
2019-01-20T12:29:30.843Z,4.60
2019-01-20T12:32:01.000Z,4.40
2019-01-20T12:34:31.975Z,4.60
2019-01-20T12:37:05.174Z,4.80
2019-01-20T12:39:35.284Z,5.80
2019-01-20T12:42:05.413Z,6.70
2019-01-20T12:44:36.497Z,7.50
2019-01-20T12:47:06.676Z,7.40
2019-01-20T12:49:36.914Z,6.60
2019-01-20T12:52:07.039Z,5.90
2019-01-20T12:54:37.154Z,5.30
2019-01-20T12:57:07.359Z,4.80
2019-01-20T12:59:37.529Z,4.60
2019-01-20T13:02:07.762Z,4.40
2019-01-20T13:04:37.853Z,4.20
2019-01-20T13:07:08.000Z,4.00
2019-01-20T13:09:38.090Z,3.80
2019-01-20T13:12:08.256Z,3.60
2019-01-20T13:14:39.071Z,3.50
2019-01-20T13:17:10.518Z,3.50
2019-01-20T13:19:40.633Z,3.40
2019-01-20T13:22:10.789Z,3.30
2019-01-20T13:24:40.893Z,3.30
2019-01-20T13:27:23.380Z,3.20
2019-01-20T13:29:53.498Z,3.30
2019-01-20T13:32:23.585Z,3.20
2019-01-20T13:34:53.698Z,3.10
2019-01-20T13:37:23.789Z,3.00
2019-01-20T13:39:53.899Z,3.00
2019-01-20T13:42:23.989Z,3.10
2019-01-20T13:44:54.109Z,3.10
2019-01-20T13:47:24.199Z,3.00
2019-01-20T13:49:54.344Z,3.00
2019-01-20T13:52:24.415Z,3.00
2019-01-20T13:54:54.531Z,2.90
2019-01-20T13:57:24.648Z,2.90
2019-01-20T13:59:54.770Z,2.80
2019-01-20T14:02:24.861Z,2.80
2019-01-20T14:04:54.978Z,2.70
2019-01-20T14:07:25.117Z,2.60
2019-01-20T14:09:55.217Z,2.60
2019-01-20T14:12:25.304Z,2.50
2019-01-20T14:14:55.416Z,2.50
2019-01-20T14:17:25.577Z,2.50
2019-01-20T14:19:55.697Z,2.40
2019-01-20T14:22:25.917Z,2.30
2019-01-20T14:24:56.085Z,2.20
2019-01-20T14:27:26.170Z,2.10
2019-01-20T14:29:56.287Z,2.00
2019-01-20T14:32:26.372Z,1.80
2019-01-20T14:34:56.493Z,1.70
2019-01-20T14:37:26.659Z,1.60
2019-01-20T14:39:56.774Z,1.50
2019-01-20T14:42:26.861Z,1.40
2019-01-20T14:45:01.024Z,1.30
2019-01-20T14:47:28.758Z,1.20
2019-01-20T14:49:58.878Z,1.10
2019-01-20T14:52:28.966Z,1.00
2019-01-20T14:54:59.147Z,0.90
2019-01-20T14:57:29.235Z,0.90
2019-01-20T14:59:59.382Z,0.80
2019-01-20T15:02:29.488Z,0.70
2019-01-20T15:04:59.610Z,0.60
2019-01-20T15:07:29.701Z,0.60
2019-01-20T15:09:59.931Z,0.50
2019-01-20T15:12:30.070Z,0.40
2019-01-20T15:15:00.246Z,0.30
2019-01-20T15:17:30.425Z,0.20
2019-01-20T15:20:00.572Z,0.10
2019-01-20T15:22:31.733Z,0.10
2019-01-20T15:25:01.860Z,0.00
2019-01-20T15:27:31.976Z,-0.10
2019-01-20T15:30:02.074Z,-0.20
2019-01-20T15:32:32.242Z,-0.20
2019-01-20T15:35:02.383Z,-0.40
2019-01-20T15:37:32.479Z,-0.50
2019-01-20T15:40:02.602Z,-0.50
2019-01-20T15:42:32.698Z,-0.60
2019-01-20T15:45:02.830Z,-0.70
2019-01-20T15:47:33.238Z,-0.70
2019-01-20T15:50:04.614Z,-0.80
2019-01-20T15:52:34.712Z,-0.80
2019-01-20T15:55:07.942Z,-0.90
2019-01-20T15:57:38.038Z,-1.00
2019-01-20T16:00:23.499Z,-1.10
2019-01-20T16:02:53.590Z,-1.10
2019-01-20T16:05:24.424Z,-1.20
2019-01-20T16:07:54.519Z,-1.20
2019-01-20T16:10:25.484Z,-1.30
2019-01-20T16:12:55.898Z,-1.30
2019-01-20T16:15:32.513Z,-1.40
2019-01-20T16:18:02.612Z,-1.40
2019-01-20T16:20:32.783Z,-1.50
2019-01-20T16:23:02.878Z,-1.50
2019-01-20T16:25:34.615Z,-1.60
2019-01-20T16:28:04.984Z,-1.60
2019-01-20T16:30:37.419Z,-1.60
2019-01-20T16:33:07.514Z,-1.70
2019-01-20T16:35:37.643Z,-1.70
2019-01-20T16:38:07.738Z,-1.70
2019-01-20T16:40:37.865Z,-1.80
2019-01-20T16:43:09.461Z,-1.80
2019-01-20T16:45:42.642Z,-1.80
2019-01-20T16:48:12.748Z,-1.80
2019-01-20T16:50:42.923Z,-1.90
2019-01-20T16:53:13.059Z,-1.90
2019-01-20T16:55:43.222Z,-1.90
2019-01-20T16:58:13.276Z,-1.90
2019-01-20T17:00:43.400Z,-1.90
2019-01-20T17:03:13.497Z,-1.90
2019-01-20T17:05:43.632Z,-1.90
2019-01-20T17:08:13.839Z,-1.90
2019-01-20T17:10:43.968Z,-1.90
2019-01-20T17:13:14.064Z,-1.90
2019-01-20T17:15:44.187Z,-1.90
2019-01-20T17:18:14.286Z,-1.90
2019-01-20T17:20:44.582Z,-1.90
2019-01-20T17:23:16.003Z,-1.90
2019-01-20T17:25:46.126Z,-1.90
2019-01-20T17:28:16.221Z,-1.80
2019-01-20T17:30:46.352Z,-1.80
2019-01-20T17:33:16.481Z,-1.80
2019-01-20T17:35:46.578Z,-1.80
2019-01-20T17:38:16.678Z,-1.70
2019-01-20T17:40:46.798Z,-1.70
2019-01-20T17:43:16.907Z,-1.60
2019-01-20T17:45:49.817Z,-1.60
2019-01-20T17:48:18.835Z,-1.50
2019-01-20T17:50:48.958Z,-1.40
2019-01-20T17:53:19.055Z,-1.40
2019-01-20T17:55:49.189Z,-1.40
2019-01-20T17:58:19.289Z,-1.30
2019-01-20T18:00:51.061Z,-1.20
2019-01-20T18:03:24.853Z,-1.20
2019-01-20T18:05:54.990Z,-1.10
2019-01-20T18:08:25.117Z,-1.10
2019-01-20T18:10:55.239Z,-1.10
2019-01-20T18:13:25.349Z,-1.00
2019-01-20T18:15:55.476Z,-1.10
2019-01-20T18:18:25.570Z,-1.00
2019-01-20T18:20:55.707Z,-1.00
2019-01-20T18:23:25.802Z,-1.00
2019-01-20T18:25:55.926Z,-0.90
2019-01-20T18:28:26.181Z,-0.90
2019-01-20T18:30:56.314Z,-0.90
2019-01-20T18:33:26.403Z,-0.90
2019-01-20T18:35:56.523Z,-0.90
2019-01-20T18:38:26.620Z,-0.90
2019-01-20T18:40:56.789Z,-0.80
2019-01-20T18:43:26.939Z,-0.80
2019-01-20T18:46:10.451Z,-0.80
2019-01-20T18:48:40.550Z,-0.80
2019-01-20T18:51:10.682Z,-0.80
2019-01-20T18:53:40.872Z,-0.70
2019-01-20T18:56:11.437Z,-0.70
2019-01-20T18:58:41.532Z,-0.70
2019-01-20T19:01:12.270Z,-0.80
2019-01-20T19:03:42.587Z,-0.70
2019-01-20T19:06:19.983Z,-0.70
2019-01-20T19:08:50.092Z,-0.70
2019-01-20T19:11:20.306Z,-0.70
2019-01-20T19:13:50.405Z,-0.70
2019-01-20T19:16:20.527Z,-0.70
2019-01-20T19:18:50.647Z,-0.70
2019-01-20T19:21:20.771Z,-0.70
2019-01-20T19:23:50.875Z,-0.70
2019-01-20T19:26:21.008Z,-0.80
2019-01-20T19:28:51.557Z,-0.70
2019-01-20T19:31:21.683Z,-0.70
2019-01-20T19:33:51.780Z,-0.60
2019-01-20T19:36:21.907Z,-0.70
2019-01-20T19:38:52.002Z,-0.70
2019-01-20T19:41:22.127Z,-0.70
2019-01-20T19:43:52.504Z,-0.70
2019-01-20T19:46:22.630Z,-0.70
2019-01-20T19:48:52.798Z,-0.70
2019-01-20T19:51:23.003Z,-0.70
2019-01-20T19:53:53.183Z,-0.70
2019-01-20T19:56:23.290Z,-0.70
2019-01-20T19:58:53.417Z,-0.80
2019-01-20T20:01:30.591Z,-0.80
2019-01-20T20:03:55.411Z,-0.80
2019-01-20T20:06:25.512Z,-0.80
2019-01-20T20:08:57.353Z,-0.80
2019-01-20T20:11:28.361Z,-0.90
2019-01-20T20:13:58.495Z,-0.90
2019-01-20T20:16:28.591Z,-0.80
2019-01-20T20:18:58.715Z,-0.90
2019-01-20T20:21:28.859Z,-0.90
2019-01-20T20:23:58.986Z,-0.80
2019-01-20T20:26:29.078Z,-0.90
2019-01-20T20:28:59.203Z,-0.90
2019-01-20T20:31:29.323Z,-0.80
2019-01-20T20:33:59.461Z,-0.80
2019-01-20T20:36:29.549Z,-0.80
2019-01-20T20:38:59.824Z,-0.80
2019-01-20T20:41:29.910Z,-0.80
2019-01-20T20:44:00.035Z,-0.80
2019-01-20T20:46:30.678Z,-0.90
2019-01-20T20:49:00.926Z,-0.90
2019-01-20T20:51:31.028Z,-0.90
2019-01-20T20:54:01.149Z,-0.90
2019-01-20T20:56:31.251Z,-0.80
2019-01-20T20:59:01.371Z,-0.80
2019-01-20T21:01:33.095Z,-0.80
2019-01-20T21:04:03.658Z,-0.80
2019-01-20T21:06:33.856Z,-0.80
2019-01-20T21:09:06.482Z,-0.80
2019-01-20T21:11:36.587Z,-0.80
2019-01-20T21:14:06.701Z,-0.90
2019-01-20T21:16:38.001Z,-0.80
2019-01-20T21:19:08.321Z,-0.80
2019-01-20T21:21:38.418Z,-0.90
2019-01-20T21:24:08.585Z,-0.90
2019-01-20T21:26:44.531Z,-0.90
2019-01-20T21:29:13.179Z,-0.90
2019-01-20T21:31:43.269Z,-0.90
2019-01-20T21:34:17.063Z,-0.90
2019-01-20T21:36:47.165Z,-1.00
2019-01-20T21:39:17.368Z,-0.90
2019-01-20T21:41:47.450Z,-1.00
2019-01-20T21:44:17.687Z,-0.90
2019-01-20T21:46:47.773Z,-0.90
2019-01-20T21:49:18.176Z,-1.00
2019-01-20T21:51:48.322Z,-1.00
2019-01-20T21:54:19.381Z,-1.00
2019-01-20T21:56:49.466Z,-0.90
2019-01-20T21:59:19.710Z,-1.00
2019-01-20T22:01:49.801Z,-1.00
2019-01-20T22:04:20.579Z,-1.00
2019-01-20T22:06:50.656Z,-1.00
2019-01-20T22:09:22.455Z,-1.00
2019-01-20T22:11:52.618Z,-1.00
2019-01-20T22:14:22.780Z,-1.00
2019-01-20T22:16:53.170Z,-1.10
2019-01-20T22:19:23.298Z,-1.10
2019-01-20T22:21:53.395Z,-1.10
2019-01-20T22:24:23.604Z,-1.10
2019-01-20T22:26:53.698Z,-1.10
2019-01-20T22:29:23.960Z,-1.10
2019-01-20T22:31:54.043Z,-1.10
2019-01-20T22:34:24.180Z,-1.20
2019-01-20T22:36:54.275Z,-1.10
2019-01-20T22:39:24.435Z,-1.10
2019-01-20T22:41:54.633Z,-1.20
2019-01-20T22:44:24.794Z,-1.20
2019-01-20T22:46:59.985Z,-1.10
2019-01-20T22:49:29.527Z,-1.20
2019-01-20T22:51:59.614Z,-1.20
2019-01-20T22:54:30.705Z,-1.20
2019-01-20T22:57:00.804Z,-1.20
2019-01-20T22:59:30.923Z,-1.20
2019-01-20T23:02:01.021Z,-1.20
2019-01-20T23:04:31.135Z,-1.30
2019-01-20T23:07:01.266Z,-1.30
2019-01-20T23:09:31.396Z,-1.30
2019-01-20T23:12:01.491Z,-1.30
2019-01-20T23:14:32.031Z,-1.30
2019-01-20T23:17:07.706Z,-1.30
2019-01-20T23:19:34.230Z,-1.30
2019-01-20T23:22:04.328Z,-1.20
2019-01-20T23:24:34.764Z,-1.20
2019-01-20T23:27:04.994Z,-1.20
2019-01-20T23:29:36.359Z,-1.20
2019-01-20T23:32:06.702Z,-1.20
2019-01-20T23:34:36.900Z,-1.20
2019-01-20T23:37:07.018Z,-1.20
2019-01-20T23:39:37.227Z,-1.20
2019-01-20T23:42:07.323Z,-1.20
2019-01-20T23:44:37.533Z,-1.20
2019-01-20T23:47:14.901Z,-1.20
2019-01-20T23:49:39.450Z,-1.20
2019-01-20T23:52:09.541Z,-1.10
2019-01-20T23:54:39.700Z,-1.20
2019-01-20T23:57:09.791Z,-1.20
2019-01-20T23:59:39.912Z,-1.20
